createdAt,value
2022-10-05T00:09:22.753Z,6.54
2022-10-05T00:19:22.784Z,6.74
2022-10-05T00:29:23.085Z,6.34
2022-10-05T00:39:23.112Z,6.69
2022-10-05T00:49:23.434Z,6.48
2022-10-05T00:59:23.457Z,6.69
2022-10-05T01:09:23.795Z,6.27
2022-10-05T01:19:23.808Z,5.53
2022-10-05T01:29:24.152Z,6.27
2022-10-05T01:39:24.196Z,5.73
2022-10-05T01:49:24.493Z,6.69
2022-10-05T01:59:24.694Z,5.94
2022-10-05T02:09:24.837Z,6.69
2022-10-05T02:19:24.866Z,5.53
2022-10-05T02:29:25.181Z,5.32
2022-10-05T02:39:25.239Z,5.94
2022-10-05T02:49:25.542Z,5.94
2022-10-05T02:59:25.557Z,5.94
2022-10-05T03:09:25.889Z,5.73
2022-10-05T03:19:25.906Z,6.14
2022-10-05T03:29:26.280Z,5.58
2022-10-05T03:39:26.403Z,5.38
2022-10-05T03:49:26.484Z,6.14
2022-10-05T03:59:32.116Z,5.96
2022-10-05T04:09:27.768Z,6.71
2022-10-05T04:19:27.108Z,6.09
2022-10-05T04:29:27.135Z,6.44
2022-10-05T04:39:27.475Z,5.80
2022-10-05T04:49:27.497Z,6.13
2022-10-05T04:59:27.915Z,6.13
2022-10-05T05:09:27.937Z,6.13
2022-10-05T05:19:28.258Z,5.97
2022-10-05T05:29:28.286Z,6.13
2022-10-05T05:39:28.614Z,6.13
2022-10-05T05:49:28.636Z,6.13
2022-10-05T05:59:28.971Z,5.31
2022-10-05T06:09:29.009Z,5.47
2022-10-05T06:19:29.310Z,6.30
2022-10-05T06:29:29.368Z,6.30
2022-10-05T06:39:29.669Z,6.30
2022-10-05T06:49:29.687Z,6.13
2022-10-05T06:59:30.014Z,6.95
2022-10-05T07:09:30.043Z,7.86
2022-10-05T07:19:30.270Z,8.28
2022-10-05T07:29:30.510Z,7.01
2022-10-05T07:39:55.317Z,8.27
2022-10-05T07:49:31.923Z,6.12
2022-10-05T07:59:31.138Z,6.59
2022-10-05T08:09:31.448Z,6.54
2022-10-05T08:19:31.474Z,6.54
2022-10-05T08:29:31.785Z,7.73
2022-10-05T08:39:31.816Z,6.78
2022-10-05T08:49:35.196Z,6.49
2022-10-05T08:59:32.207Z,8.92
2022-10-05T09:09:32.492Z,8.27
2022-10-05T09:19:32.509Z,10.02
2022-10-05T09:29:32.843Z,8.82
2022-10-05T09:39:32.867Z,8.92
2022-10-05T09:49:33.191Z,8.96
2022-10-05T09:59:33.238Z,8.34
2022-10-05T10:09:37.860Z,9.26
2022-10-05T10:19:34.531Z,8.96
2022-10-05T10:29:33.796Z,9.57
2022-10-05T10:39:34.019Z,10.16
2022-10-05T10:49:34.350Z,9.84
2022-10-05T10:59:34.391Z,9.52
2022-10-05T11:09:34.690Z,10.09
2022-10-05T11:19:40.442Z,9.74
2022-10-05T11:29:35.982Z,7.40
2022-10-05T11:39:35.313Z,9.74
2022-10-05T11:49:35.335Z,10.09
2022-10-05T11:59:35.677Z,12.01
2022-10-05T12:09:35.694Z,10.99
2022-10-05T12:19:36.021Z,10.65
2022-10-05T12:29:36.049Z,11.19
2022-10-05T12:39:36.367Z,12.57
2022-10-05T12:49:36.411Z,10.83
2022-10-05T12:59:36.723Z,11.90
2022-10-05T13:09:36.757Z,12.57
2022-10-05T13:19:37.072Z,13.85
2022-10-05T13:29:37.104Z,14.46
2022-10-05T13:39:37.419Z,14.46
2022-10-05T13:49:37.518Z,15.61
2022-10-05T13:59:37.669Z,15.89
2022-10-05T14:09:37.697Z,15.33
2022-10-05T14:19:38.013Z,15.89
2022-10-05T14:29:38.044Z,14.40
2022-10-05T14:39:38.378Z,13.47
2022-10-05T14:49:38.406Z,13.24
2022-10-05T14:59:38.718Z,12.61
2022-10-05T15:09:38.740Z,12.93
2022-10-05T15:19:39.069Z,12.61
2022-10-05T15:29:39.091Z,13.83
2022-10-05T15:39:39.412Z,13.35
2022-10-05T15:49:39.434Z,14.63
2022-10-05T15:59:39.760Z,14.17
2022-10-05T16:09:39.823Z,13.45
2022-10-05T16:19:40.111Z,14.17
2022-10-05T16:29:40.135Z,13.45
2022-10-05T16:39:40.565Z,13.18
2022-10-05T16:49:40.586Z,13.40
2022-10-05T16:59:40.927Z,13.09
2022-10-05T17:09:40.968Z,13.29
2022-10-05T17:19:41.295Z,12.74
2022-10-05T17:29:41.335Z,12.74
2022-10-05T17:39:41.663Z,12.94
2022-10-05T17:49:41.857Z,12.36
2022-10-05T17:59:42.117Z,12.55
2022-10-05T18:09:42.138Z,11.37
2022-10-05T18:19:42.546Z,11.97
2022-10-05T18:29:42.827Z,11.77
2022-10-05T18:39:42.872Z,11.05
2022-10-05T18:49:43.096Z,11.27
2022-10-05T18:59:43.384Z,10.09
2022-10-05T19:09:43.334Z,10.74
2022-10-05T19:19:43.277Z,10.74
2022-10-05T19:29:43.304Z,10.53
2022-10-05T19:39:43.806Z,10.31
2022-10-05T19:49:43.716Z,10.31
2022-10-05T19:59:44.062Z,9.65
2022-10-05T20:09:44.098Z,10.53
2022-10-05T20:19:44.413Z,10.53
2022-10-05T20:29:44.451Z,9.99
2022-10-05T20:39:44.772Z,10.20
2022-10-05T20:49:44.802Z,9.78
2022-10-05T20:59:45.111Z,9.78
2022-10-05T21:09:45.131Z,10.20
2022-10-05T21:19:45.471Z,9.99
2022-10-05T21:29:45.512Z,9.78
2022-10-05T21:39:45.818Z,10.20
2022-10-05T21:49:45.852Z,9.83
2022-10-05T21:59:46.167Z,9.64
2022-10-05T22:09:46.200Z,9.78
2022-10-05T22:19:46.516Z,9.03
2022-10-05T22:29:46.567Z,9.44
2022-10-05T22:39:46.863Z,9.44
2022-10-05T22:49:46.894Z,9.64
2022-10-05T22:59:47.211Z,9.03
2022-10-05T23:09:47.222Z,9.03
2022-10-05T23:19:47.569Z,9.44
2022-10-05T23:29:47.646Z,8.87
2022-10-05T23:39:47.814Z,8.87
2022-10-05T23:49:47.838Z,9.44
2022-10-05T23:59:48.161Z,9.44
